NCAR-RAP Real-Time Weather Data

Output produced by METARs form (17 December 2018  13:57 UTC)
found at http://weather.rap.ucar.edu/surface/
 
RJFK 171200Z 36006KT 320V030 9999 FEW035 BKN060 06/01 Q1017 RMK 1CU035 6SC060 A3005
RJFK 171100Z 33006KT 9999 FEW035 BKN060 07/01 Q1017 RMK 1CU035 6SC060 A3005
RJFK 171000Z 32011KT 9999 FEW035 BKN060 07/01 Q1017 RMK 1CU035 5SC060 A3004
RJFK 170900Z 33011KT 9999 FEW035 07/01 Q1016 RMK 2CU035 A3003
RJFK 170800Z 33012KT 9999 FEW035 08/01 Q1016 RMK 2CU035 A3002 VOLCANIC ASH CLOUD S
RJFK 170700Z 32015G25KT 9999 FEW035 10/02 Q1015 RMK 2CU035 A2999
RJFK 170600Z 33019KT 9999 FEW030 10/03 Q1015 RMK 2CU030 A2997
RJFK 170500Z 33015G25KT 300V360 9999 FEW025 SCT040 11/03 Q1015 RMK 1CU025 3CU040 A2997 VOLCANIC ASH CLOUD S
RJFK 170400Z 34014KT 9999 FEW030 SCT070 10/03 Q1015 RMK 2CU030 4AC070 A2998 VOLCANIC ASH CLOUD S
RJFK 170313Z 32017G29KT 9999 FEW030 SCT040 10/03 Q1015 RMK 1CU030 3CU040 A2999 VOLCANIC ASH CLOUD S
RJFK 170300Z 32016KT 9999 FEW030 SCT040 11/03 Q1015 RMK 1CU030 3CU040 A2999 VOLCANIC ASH CLOUD S
RJFK 170228Z 32016G26KT 9999 FEW030 12/02 Q1015 RMK 2CU030 A2999 VOLCANIC ASH CLOUD S
RJFK 170200Z 32017KT 9999 FEW030 12/04 Q1015 RMK 2CU030 A3000 VOLCANIC ASH CLOUD S
RJFK 170100Z 34012KT 9999 FEW030 11/05 Q1016 RMK 1CU030 A3000 VOLCANIC ASH CLOUD S
RJFK 170000Z 34011KT 9999 FEW020 10/05 Q1016 RMK 1CU020 A3000 VOLCANIC ASH CLOUD S
RJFK 162300Z 34009KT 9999 FEW020 BKN050 09/06 Q1015 RMK 1CU020 6SC050 A2998
RJFK 162200Z 33014KT 9999 FEW005 SCT030 BKN050 09/06 Q1014 RMK 1ST005 4CU030 7SC050 A2997
RJFK 162100Z 32017KT 9999 FEW030 BKN040 09/09 Q1014 RMK 1CU030 7CU040 A2995
RJFK 161221Z 35003KT 3000 SHRA BR FEW005 BKN025 BKN035 10/10 Q1013 RMK 2ST005 5CU025 7CU035 A2993
RJFK 161200Z 01004KT 3000 -SHRA BR FEW005 BKN025 BKN035 09/09 Q1013 RMK 2ST005 5CU025 7CU035 A2993
RJFK 161124Z 36003KT 3000 -SHRA BR FEW005 BKN025 BKN035 09/09 Q1014 RMK 1ST005 5CU025 7CU035 A2994
RJFK 161100Z 36004KT 2000 SHRA BR FEW005 BKN025 BKN035 09/09 Q1014 RMK 2ST005 5CU025 7CU035 A2996 MOD TURB OBS AT 1032Z 20NM NE OF SPICA BTN 24000FT AND 21000FT IN DES MOV SW B738
RJFK 161022Z 34004KT 2000 R34/2000N SHRA BR FEW002 SCT005 BKN025 09/09 Q1014 RMK 1ST002 3ST005 7CU025 A2997
RJFK 161013Z 36004KT 3000 -SHRA BR FEW002 SCT005 BKN025 09/09 Q1014 RMK 1ST002 3ST005 6CU025 A2997
RJFK 161000Z 36004KT 4000 -SHRA BR FEW005 SCT025 BKN030 09/09 Q1015 RMK 1ST005 3CU025 7CU030 A2997
RJFK 160950Z 36004KT 4000 -SHRA BR FEW025 BKN030 BKN045 09/09 Q1015 RMK 1CU025 5CU030 7SC045 A2997
RJFK 160900Z 00000KT 8000 -SHRA FEW006 SCT030 BKN045 09/09 Q1015 RMK 1ST006 3CU030 7SC045 A3000
RJFK 160800Z 04002KT 8000 -SHRA BCFG FEW005 SCT030 BKN045 09/09 Q1016 RMK 1ST005 4CU030 7SC045 A3001 2000N-NE FG N-E
RJFK 160700Z 01002KT 8000 -SHRA BCFG FEW005 SCT015 BKN030 09/09 Q1017 RMK 1ST005 4CU015 6CU030 A3004 3000N-NE FG N-E
RJFK 160622Z 35004KT 7000 -SHRA BCFG FEW005 SCT015 BKN030 09/09 Q1017 RMK 1ST005 4CU015 6CU030 A3005 3000N-NE FG N-E
RJFK 160609Z 02005KT 4000 -SHRA BR BCFG FEW005 BKN020 BKN035 09/09 Q1017 RMK 2ST005 5CU020 6CU035 A3005 2000N-NE FG N-E
RJFK 160600Z 01004KT 2500 -SHRA BR BCFG FEW003 SCT006 BKN015 09/09 Q1018 RMK 1ST003 3ST006 6CU015 A3006 FG N-E
RJFK 160525Z 02006KT 2500 -SHRA BR BCFG FEW005 SCT008 BKN015 08/08 Q1018 RMK 1ST005 4ST008 6CU015 A3008 FG N-E
RJFK 160515Z 01007KT 2500 SHRA BR BCFG FEW005 SCT008 BKN015 08/08 Q1018 RMK 1ST005 4ST008 6CU015 A3009 FG N-E
RJFK 160500Z 36005KT 2000 SHRA BR BCFG FEW005 SCT008 BKN015 08/08 Q1019 RMK 1ST005 4ST008 6CU015 A3010 FG N-E
RJFK 160445Z 36005KT 3500 R34/P2000N SHRA BR BCFG FEW005 SCT010 BKN020 09/09 Q1019 RMK 1ST005 4CU010 6CU020 A3010 1500N-NE FG N-E
RJFK 160435Z 36004KT 5000 SHRA BR BCFG FEW005 SCT010 BKN020 09/09 Q1019 RMK 1ST005 4CU010 6CU020 A3009 FG N-E
RJFK 160400Z 36006KT 8000 -SHRA BCFG FEW010 SCT025 BKN035 08/08 Q1019 RMK 1CU010 4CU025 6CU035 A3010 3000N-NE FG N-E
RJFK 160300Z 36005KT 9999 -RA BCFG FEW015 BKN030 BKN045 08/08 Q1020 RMK 1CU015 5CU030 7SC045 A3014 4000N-NE FG N-E P/FR
RJFK 160200Z 02004KT 9999 -RA BCFG FEW015 BKN030 BKN045 07/07 Q1022 RMK 1CU015 5CU030 7SC045 A3018 FG NW-NE
RJFK 160100Z 35003KT 9999 -RA FEW030 BKN045 OVC100 07/07 Q1023 RMK 1CU030 6SC045 8AS100 A3021
RJFK 160000Z 03003KT 9999 -RA FEW030 BKN050 OVC100 08/06 Q1022 RMK 1CU030 6SC050 8AS100 A3020 VOLCANIC ASH CLOUD S
RJFK 151200Z 03003KT 010V070 9999 FEW030 SCT/// 06/01 Q1027 RMK 1CU030 A3034
RJFK 151100Z 04003KT 9999 FEW030 BKN/// 05/01 Q1027
RJFK 151000Z 07004KT CAVOK 07/00 Q1028 RMK A3036
RJFK 150900Z 11003KT CAVOK 09/M00 Q1027 RMK A3034 VOLCANIC ASH CLOUD S
RJFK 150800Z VRB01KT CAVOK 09/M01 Q1026 RMK A3031 VOLCANIC ASH CLOUD S
RJFK 150700Z 26003KT 230V330 CAVOK 11/M01 Q1026 RMK A3031 VOLCANIC ASH CLOUD S
RJFK 150600Z VRB03KT CAVOK 12/M01 Q1026 RMK A3032 VOLCANIC ASH CLOUD S
RJFK 150500Z VRB03KT CAVOK 12/M04 Q1026 RMK A3032 VOLCANIC ASH CLOUD S
RJFK 150400Z 07004KT 020V120 CAVOK 11/M04 Q1027 RMK A3035 VOLCANIC ASH CLOUD S
RJFK 150300Z 11006KT 050V170 CAVOK 11/M05 Q1028 RMK A3038 VOLCANIC ASH CLOUD S
RJFK 150200Z 10004KT 060V130 CAVOK 10/M02 Q1029 RMK A3039 VOLCANIC ASH CLOUD SE-SW